Time;durP1;ratioP1;P1;durP2;ratioP2;P2;SDS_P1;SDS_P2;PMS_P1;PMS_P2;Temp;Humidity;BMP_temperature;BMP_pressure;BME280_temperature;BME280_humidity;BME280_pressure;Samples;Min_cycle;Max_cycle;Signal;HPM_P1;HPM_P2
2023/09/25 00:00:25;;;;;;;;;;;;;;;;;;6301511;28;19928;-95
2023/09/25 00:03:25;;;;;;;;;;;;;;;;;;6318827;28;19904;-94
2023/09/25 00:06:25;;;;;;;;;;;;;;;;;;6318174;28;20291;-94
2023/09/25 00:09:27;;;;;;;;;;;;;;;;;;6300433;28;19913;-95
2023/09/25 00:12:27;;;;;;;;;;;;;;;;;;6319228;28;20278;-94
2023/09/25 00:15:27;;;;;;;;;;;;;;;;;;6301863;28;19914;-94
2023/09/25 00:18:28;;;;;;;;;;;;;;;;;;6319028;28;19904;-95
2023/09/25 00:21:30;;;;;;;;;;;;;;;;;;6301037;28;19904;-95
2023/09/25 00:24:30;;;;;;;;;;;;;;;;;;6318887;28;19904;-96
2023/09/25 00:27:33;;;;;;;;;;;;;;;;;;6300824;28;19904;-96
2023/09/25 00:30:34;;;;;;;;;;;;;;;;;;6300970;28;19904;-95
2023/09/25 00:33:34;;;;;;;;;;;;;;;;;;6300665;28;19904;-95
2023/09/25 00:36:34;;;;;;;;;;;;;;;;;;6318731;28;19909;-94
2023/09/25 00:39:34;;;;;;;;;;;;;;;;;;6318291;28;19904;-94
2023/09/25 00:42:34;;;;;;;;;;;;;;;;;;6300370;28;19904;-95
2023/09/25 00:45:37;;;;;;;;;;;;;;;;;;6316630;28;19905;-95
2023/09/25 00:48:42;;;;;;;;;;;;;;;;;;6297663;28;20352;-95
2023/09/25 00:51:44;;;;;;;;;;;;;;;;;;6314411;28;19905;-94
2023/09/25 00:54:44;;;;;;;;;;;;;;;;;;6313264;28;19908;-93
2023/09/25 00:57:45;;;;;;;;;;;;;;;;;;6286299;28;19904;-87
2023/09/25 01:00:45;;;;;;;;;;;;;;;;;;6300609;28;19916;-87
2023/09/25 01:03:45;;;;;;;;;;;;;;;;;;6299501;28;19911;-87
2023/09/25 01:06:45;;;;;;;;;;;;;;;;;;6281919;28;19904;-94
2023/09/25 01:09:45;;;;;;;;;;;;;;;;;;6300950;28;19912;-93
2023/09/25 01:12:45;;;;;;;;;;;;;;;;;;6300736;28;19957;-94
2023/09/25 01:15:45;;;;;;;;;;;;;;;;;;6300593;28;19958;-93
2023/09/25 01:18:47;;;;;;;;;;;;;;;;;;6301014;28;19905;-92
2023/09/25 01:21:47;;;;;;;;;;;;;;;;;;6283741;28;20317;-93
2023/09/25 01:24:47;;;;;;;;;;;;;;;;;;6301672;28;19912;-93
2023/09/25 01:27:47;;;;;;;;;;;;;;;;;;6289753;28;20022;-92
2023/09/25 01:30:47;;;;;;;;;;;;;;;;;;6303955;28;20282;-94
2023/09/25 01:33:47;;;;;;;;;;;;;;;;;;6300495;28;19912;-94
2023/09/25 01:36:47;;;;;;;;;;;;;;;;;;6282324;28;19931;-95
2023/09/25 01:39:48;;;;;;;;;;;;;;;;;;6281108;28;19905;-94
2023/09/25 01:42:48;;;;;;;;;;;;;;;;;;6299030;28;19904;-94
2023/09/25 01:45:48;;;;;;;;;;;;;;;;;;6280620;28;20374;-96
2023/09/25 01:48:49;;;;;;;;;;;;;;;;;;6281264;28;20321;-96
2023/09/25 01:51:49;;;;;;;;;;;;;;;;;;6281413;28;20376;-95
2023/09/25 01:54:49;;;;;;;;;;;;;;;;;;6281813;28;20345;-95
2023/09/25 01:57:49;;;;;;;;;;;;;;;;;;6300131;28;20013;-94
2023/09/25 02:00:49;;;;;;;;;;;;;;;;;;6282524;28;20063;-95
2023/09/25 02:03:50;;;;;;;;;;;;;;;;;;6281526;28;19911;-95
2023/09/25 02:06:50;;;;;;;;;;;;;;;;;;6299276;28;19947;-87
2023/09/25 02:09:50;;;;;;;;;;;;;;;;;;6297609;28;19913;-87
2023/09/25 02:12:51;;;;;;;;;;;;;;;;;;6297642;28;19909;-87
2023/09/25 02:15:51;;;;;;;;;;;;;;;;;;6297650;28;19913;-87
2023/09/25 02:18:51;;;;;;;;;;;;;;;;;;6320258;28;19904;-94
2023/09/25 02:21:51;;;;;;;;;;;;;;;;;;6322450;28;19915;-94
2023/09/25 02:24:52;;;;;;;;;;;;;;;;;;6305576;28;19907;-92
2023/09/25 02:27:52;;;;;;;;;;;;;;;;;;6319087;28;19958;-94
2023/09/25 02:30:52;;;;;;;;;;;;;;;;;;6316065;28;19908;-95
2023/09/25 02:33:52;;;;;;;;;;;;;;;;;;6324347;28;19908;-95
2023/09/25 02:36:52;;;;;;;;;;;;;;;;;;6306938;28;19960;-93
2023/09/25 02:39:52;;;;;;;;;;;;;;;;;;6307379;28;19939;-94
2023/09/25 02:42:52;;;;;;;;;;;;;;;;;;6322703;28;19904;-93
2023/09/25 02:45:52;;;;;;;;;;;;;;;;;;6309965;28;19904;-94
2023/09/25 02:48:52;;;;;;;;;;;;;;;;;;6319622;28;19904;-94
2023/09/25 02:51:53;;;;;;;;;;;;;;;;;;6305854;28;19962;-93
2023/09/25 02:54:53;;;;;;;;;;;;;;;;;;6306452;28;19932;-94
2023/09/25 02:57:53;;;;;;;;;;;;;;;;;;6307186;28;19905;-95
2023/09/25 03:00:53;;;;;;;;;;;;;;;;;;6328904;28;19912;-94
2023/09/25 03:03:53;;;;;;;;;;;;;;;;;;6325138;28;19904;-95
2023/09/25 03:06:53;;;;;;;;;;;;;;;;;;6291030;28;19904;-94
2023/09/25 03:09:54;;;;;;;;;;;;;;;;;;6309684;28;19913;-95
2023/09/25 03:12:54;;;;;;;;;;;;;;;;;;6307283;28;19906;-96
2023/09/25 03:15:54;;;;;;;;;;;;;;;;;;6306459;28;19912;-89
2023/09/25 03:18:54;;;;;;;;;;;;;;;;;;6301293;28;19904;-88
2023/09/25 03:21:54;;;;;;;;;;;;;;;;;;6283531;28;20317;-87
2023/09/25 03:24:54;;;;;;;;;;;;;;;;;;6283468;28;19904;-86
2023/09/25 03:27:55;;;;;;;;;;;;;;;;;;6301127;28;19954;-86
2023/09/25 03:30:55;;;;;;;;;;;;;;;;;;6283029;28;19905;-87
2023/09/25 03:33:55;;;;;;;;;;;;;;;;;;6282966;28;20287;-86
2023/09/25 03:36:55;;;;;;;;;;;;;;;;;;6300729;28;19912;-87
2023/09/25 03:39:55;;;;;;;;;;;;;;;;;;6301434;28;19904;-87
2023/09/25 03:42:55;;;;;;;;;;;;;;;;;;6283027;28;19955;-87
2023/09/25 03:45:55;;;;;;;;;;;;;;;;;;6283377;28;20002;-87
2023/09/25 03:48:56;;;;;;;;;;;;;;;;;;6300558;28;19904;-86
2023/09/25 03:51:56;;;;;;;;;;;;;;;;;;6282615;28;19904;-87
2023/09/25 03:54:56;;;;;;;;;;;;;;;;;;6300294;28;19916;-88
2023/09/25 03:57:56;;;;;;;;;;;;;;;;;;6300368;28;19912;-88
2023/09/25 04:00:56;;;;;;;;;;;;;;;;;;6300311;28;19932;-87
2023/09/25 04:03:56;;;;;;;;;;;;;;;;;;6300259;28;20359;-87
2023/09/25 04:06:57;;;;;;;;;;;;;;;;;;6283467;28;19956;-87
2023/09/25 04:09:57;;;;;;;;;;;;;;;;;;6299451;28;19912;-87
2023/09/25 04:12:57;;;;;;;;;;;;;;;;;;6300000;28;20313;-88
2023/09/25 04:15:57;;;;;;;;;;;;;;;;;;6300825;28;19934;-87
2023/09/25 04:18:58;;;;;;;;;;;;;;;;;;6300048;28;19911;-87
2023/09/25 04:21:59;;;;;;;;;;;;;;;;;;6300351;28;19909;-87
2023/09/25 04:24:59;;;;;;;;;;;;;;;;;;6281827;28;19995;-87
2023/09/25 04:28:00;;;;;;;;;;;;;;;;;;6300070;28;19904;-87
2023/09/25 04:31:00;;;;;;;;;;;;;;;;;;6299545;28;20288;-87
2023/09/25 04:34:00;;;;;;;;;;;;;;;;;;6299602;28;19972;-88
2023/09/25 04:37:00;;;;;;;;;;;;;;;;;;6299480;28;20274;-88
2023/09/25 04:40:00;;;;;;;;;;;;;;;;;;6299668;28;19909;-88
2023/09/25 04:43:00;;;;;;;;;;;;;;;;;;6299496;28;19926;-87
2023/09/25 04:46:01;;;;;;;;;;;;;;;;;;6299726;28;19915;-87
2023/09/25 04:49:01;;;;;;;;;;;;;;;;;;6299459;28;19908;-87
2023/09/25 04:52:01;;;;;;;;;;;;;;;;;;6299155;28;19915;-87
2023/09/25 04:55:01;;;;;;;;;;;;;;;;;;6281047;28;19912;-87
2023/09/25 04:58:02;;;;;;;;;;;;;;;;;;6298865;28;19915;-87
2023/09/25 05:01:03;;;;;;;;;;;;;;;;;;6300538;28;19950;-86
2023/09/25 05:04:03;;;;;;;;;;;;;;;;;;6300250;28;20428;-88
2023/09/25 05:07:03;;;;;;;;;;;;;;;;;;6280918;28;19905;-88
2023/09/25 05:10:04;;;;;;;;;;;;;;;;;;6299224;28;19916;-88
2023/09/25 05:13:04;;;;;;;;;;;;;;;;;;6299398;28;19919;-88
2023/09/25 05:16:04;;;;;;;;;;;;;;;;;;6298899;28;19951;-88
2023/09/25 05:19:04;;;;;;;;;;;;;;;;;;6298582;28;20263;-87
2023/09/25 05:22:05;;;;;;;;;;;;;;;;;;6297702;28;19951;-87
2023/09/25 05:25:06;;;;;;;;;;;;;;;;;;6298411;28;19919;-88
2023/09/25 05:28:06;;;;;;;;;;;;;;;;;;6298426;28;19991;-88
2023/09/25 05:31:07;;;;;;;;;;;;;;;;;;6299085;28;19955;-88
2023/09/25 05:34:07;;;;;;;;;;;;;;;;;;6298662;28;19909;-88
2023/09/25 05:37:07;;;;;;;;;;;;;;;;;;6298497;28;19908;-88
2023/09/25 05:40:10;;;;;;;;;;;;;;;;;;6298595;28;19904;-88
2023/09/25 05:43:10;;;;;;;;;;;;;;;;;;6280582;28;19904;-88
2023/09/25 05:46:11;;;;;;;;;;;;;;;;;;6280343;28;19911;-95
2023/09/25 05:49:11;;;;;;;;;;;;;;;;;;6298610;28;19947;-95
2023/09/25 05:52:11;;;;;;;;;;;;;;;;;;6281160;28;19908;-94
2023/09/25 05:55:11;;;;;;;;;;;;;;;;;;6298045;28;19978;-93
2023/09/25 05:58:12;;;;;;;;;;;;;;;;;;6298065;28;19989;-86
2023/09/25 06:01:12;;;;;;;;;;;;;;;;;;6280470;28;19904;-87
2023/09/25 06:04:13;;;;;;;;;;;;;;;;;;6297838;28;20362;-86
2023/09/25 06:07:14;;;;;;;;;;;;;;;;;;6297542;28;19954;-86
2023/09/25 06:10:17;;;;;;;;;;;;;;;;;;6297567;28;19965;-87
2023/09/25 06:13:17;;;;;;;;;;;;;;;;;;6297529;28;19965;-86
2023/09/25 06:16:18;;;;;;;;;;;;;;;;;;6297750;28;19912;-87
2023/09/25 06:19:18;;;;;;;;;;;;;;;;;;6297360;28;19927;-88
2023/09/25 06:22:18;;;;;;;;;;;;;;;;;;6280140;28;19905;-87
2023/09/25 06:25:18;;;;;;;;;;;;;;;;;;6297723;28;19927;-86
2023/09/25 06:28:20;;;;;;;;;;;;;;;;;;6297325;28;19912;-87
2023/09/25 06:31:20;;;;;;;;;;;;;;;;;;6298349;28;19905;-87
2023/09/25 06:34:20;;;;;;;;;;;;;;;;;;6284498;28;19912;-87
2023/09/25 06:37:20;;;;;;;;;;;;;;;;;;6284588;28;19904;-86
2023/09/25 06:40:21;;;;;;;;;;;;;;;;;;6284335;28;20277;-87
2023/09/25 06:43:22;;;;;;;;;;;;;;;;;;6302234;28;19916;-86
2023/09/25 06:46:22;;;;;;;;;;;;;;;;;;6302299;28;19994;-86
2023/09/25 06:49:23;;;;;;;;;;;;;;;;;;6301376;28;19995;-87
2023/09/25 06:52:24;;;;;;;;;;;;;;;;;;6302710;28;19904;-87
2023/09/25 06:55:24;;;;;;;;;;;;;;;;;;6301840;28;20354;-87
2023/09/25 06:58:24;;;;;;;;;;;;;;;;;;6284176;28;19905;-84
2023/09/25 07:01:24;;;;;;;;;;;;;;;;;;6283887;28;19905;-84
2023/09/25 07:04:26;;;;;;;;;;;;;;;;;;6301823;28;19911;-85
2023/09/25 07:07:27;;;;;;;;;;;;;;;;;;6283917;28;19904;-90
2023/09/25 07:10:27;;;;;;;;;;;;;;;;;;6284056;28;19912;-94
2023/09/25 07:13:27;;;;;;;;;;;;;;;;;;6301615;28;19912;-91
2023/09/25 07:16:27;;;;;;;;;;;;;;;;;;6301645;28;20263;-92
2023/09/25 07:19:27;;;;;;;;;;;;;;;;;;6302688;28;19962;-92
2023/09/25 07:22:27;;;;;;;;;;;;;;;;;;6283722;28;19911;-92
2023/09/25 07:25:28;;;;;;;;;;;;;;;;;;6301366;28;19954;-92
2023/09/25 07:28:28;;;;;;;;;;;;;;;;;;6301393;28;20307;-94
2023/09/25 07:31:29;;;;;;;;;;;;;;;;;;6301227;28;19915;-92
2023/09/25 07:34:29;;;;;;;;;;;;;;;;;;6283624;28;20439;-93
2023/09/25 07:37:29;;;;;;;;;;;;;;;;;;6301652;28;20410;-90
2023/09/25 07:40:29;;;;;;;;;;;;;;;;;;6283280;28;19954;-89
2023/09/25 07:43:29;;;;;;;;;;;;;;;;;;6281997;28;19951;-90
2023/09/25 07:46:31;;;;;;;;;;;;;;;;;;6300895;28;19904;-90
2023/09/25 07:49:31;;;;;;;;;;;;;;;;;;6300813;28;19931;-90
2023/09/25 07:52:32;;;;;;;;;;;;;;;;;;6283009;28;19908;-90
2023/09/25 07:55:33;;;;;;;;;;;;;;;;;;6282865;28;20420;-90
2023/09/25 07:58:38;;;;;;;;;;;;;;;;;;6301515;28;19944;-89
2023/09/25 08:01:39;;;;;;;;;;;;;;;;;;6301116;28;19990;-89
2023/09/25 08:04:39;;;;;;;;;;;;;;;;;;6282696;28;20440;-89
2023/09/25 08:07:39;;;;;;;;;;;;;;;;;;6282472;28;19912;-90
2023/09/25 08:10:41;;;;;;;;;;;;;;;;;;6262314;28;19967;-89
2023/09/25 08:13:42;;;;;;;;;;;;;;;;;;6275343;28;20287;-88
2023/09/25 08:16:43;;;;;;;;;;;;;;;;;;6276291;28;19913;-83
2023/09/25 08:19:43;;;;;;;;;;;;;;;;;;6275520;28;19911;-83
2023/09/25 08:22:43;;;;;;;;;;;;;;;;;;6275190;28;19904;-83
2023/09/25 08:25:43;;;;;;;;;;;;;;;;;;6257164;28;19905;-83
2023/09/25 08:28:44;;;;;;;;;;;;;;;;;;6275013;28;19900;-83
2023/09/25 08:31:44;;;;;;;;;;;;;;;;;;6256912;28;19947;-83
2023/09/25 08:34:44;;;;;;;;;;;;;;;;;;6257085;28;20327;-82
2023/09/25 08:37:44;;;;;;;;;;;;;;;;;;6275322;28;19904;-82
2023/09/25 08:40:44;;;;;;;;;;;;;;;;;;6275136;28;19967;-83
2023/09/25 08:43:46;;;;;;;;;;;;;;;;;;6257063;28;19999;-83
2023/09/25 08:46:46;;;;;;;;;;;;;;;;;;6256776;28;20384;-82
2023/09/25 08:49:46;;;;;;;;;;;;;;;;;;6275162;28;19959;-82
2023/09/25 08:52:46;;;;;;;;;;;;;;;;;;6274719;28;19904;-83
2023/09/25 08:55:46;;;;;;;;;;;;;;;;;;6256425;28;19909;-81
2023/09/25 08:58:47;;;;;;;;;;;;;;;;;;6274333;28;19955;-82
2023/09/25 09:01:47;;;;;;;;;;;;;;;;;;6274506;28;19904;-83
2023/09/25 09:04:47;;;;;;;;;;;;;;;;;;6256328;28;19911;-83
2023/09/25 09:07:48;;;;;;;;;;;;;;;;;;6274096;28;19962;-83
2023/09/25 09:10:48;;;;;;;;;;;;;;;;;;6276938;28;20073;-83
2023/09/25 09:13:48;;;;;;;;;;;;;;;;;;6281339;28;19910;-82
2023/09/25 09:16:49;;;;;;;;;;;;;;;;;;6298618;28;19912;-81
2023/09/25 09:19:51;;;;;;;;;;;;;;;;;;6280599;28;19911;-81
2023/09/25 09:22:51;;;;;;;;;;;;;;;;;;6298540;28;19939;-81
2023/09/25 09:25:52;;;;;;;;;;;;;;;;;;6280839;28;19975;-82
2023/09/25 09:28:55;;;;;;;;;;;;;;;;;;6298469;28;20428;-82
2023/09/25 09:31:57;;;;;;;;;;;;;;;;;;6298276;28;19908;-82
2023/09/25 09:34:59;;;;;;;;;;;;;;;;;;6280385;28;19962;-82
2023/09/25 09:38:02;;;;;;;;;;;;;;;;;;6298846;28;19932;-82
2023/09/25 09:41:02;;;;;;;;;;;;;;;;;;6280631;28;19914;-82
2023/09/25 09:44:02;;;;;;;;;;;;;;;;;;6298189;28;19919;-82
2023/09/25 09:47:02;;;;;;;;;;;;;;;;;;6280339;28;19908;-82
2023/09/25 09:50:02;;;;;;;;;;;;;;;;;;6280118;28;20293;-81
2023/09/25 09:53:03;;;;;;;;;;;;;;;;;;6280456;28;19998;-82
2023/09/25 09:56:03;;;;;;;;;;;;;;;;;;6298241;28;19915;-82
2023/09/25 09:59:03;;;;;;;;;;;;;;;;;;6279992;28;20346;-82
2023/09/25 10:02:03;;;;;;;;;;;;;;;;;;6298093;28;19911;-82
2023/09/25 10:05:03;;;;;;;;;;;;;;;;;;6279984;28;20354;-82
2023/09/25 10:08:06;;;;;;;;;;;;;;;;;;6297385;28;19981;-83
2023/09/25 10:11:06;;;;;;;;;;;;;;;;;;6258052;28;20381;-84
2023/09/25 10:14:07;;;;;;;;;;;;;;;;;;6273175;28;19905;-83
2023/09/25 10:17:09;;;;;;;;;;;;;;;;;;6273216;28;19971;-83
2023/09/25 10:20:09;;;;;;;;;;;;;;;;;;6255119;28;19912;-82
2023/09/25 10:23:09;;;;;;;;;;;;;;;;;;6272916;28;19905;-83
2023/09/25 10:26:09;;;;;;;;;;;;;;;;;;6255002;28;19924;-82
2023/09/25 10:29:09;;;;;;;;;;;;;;;;;;6254951;28;19904;-82
2023/09/25 10:32:14;;;;;;;;;;;;;;;;;;6254895;28;19951;-83
2023/09/25 10:35:14;;;;;;;;;;;;;;;;;;6254593;28;19908;-82
2023/09/25 10:38:15;;;;;;;;;;;;;;;;;;6254810;28;19911;-83
2023/09/25 10:41:15;;;;;;;;;;;;;;;;;;6272599;28;19905;-82
2023/09/25 10:44:15;;;;;;;;;;;;;;;;;;6272608;28;20422;-84
2023/09/25 10:47:15;;;;;;;;;;;;;;;;;;6272529;28;19908;-84
2023/09/25 10:50:15;;;;;;;;;;;;;;;;;;6254903;28;19904;-84
2023/09/25 10:53:15;;;;;;;;;;;;;;;;;;6272344;28;19905;-83
2023/09/25 10:56:16;;;;;;;;;;;;;;;;;;6254401;28;19915;-84
2023/09/25 10:59:16;;;;;;;;;;;;;;;;;;6254519;28;19928;-84
2023/09/25 11:02:17;;;;;;;;;;;;;;;;;;6272898;28;19904;-84
2023/09/25 11:05:17;;;;;;;;;;;;;;;;;;6254585;28;20004;-84
2023/09/25 11:08:18;;;;;;;;;;;;;;;;;;6272350;28;19905;-84
2023/09/25 11:11:18;;;;;;;;;;;;;;;;;;6295229;28;19919;-84
2023/09/25 11:14:18;;;;;;;;;;;;;;;;;;6297069;28;19904;-83
2023/09/25 11:17:18;;;;;;;;;;;;;;;;;;6297660;28;19920;-82
2023/09/25 11:20:18;;;;;;;;;;;;;;;;;;6300444;28;19955;-84
2023/09/25 11:23:19;;;;;;;;;;;;;;;;;;6283528;28;19904;-84
2023/09/25 11:26:20;;;;;;;;;;;;;;;;;;6301405;28;20407;-84
2023/09/25 11:29:20;;;;;;;;;;;;;;;;;;6301218;28;20248;-84
2023/09/25 11:32:20;;;;;;;;;;;;;;;;;;6301364;28;19951;-83
2023/09/25 11:35:20;;;;;;;;;;;;;;;;;;6283311;28;19951;-84
2023/09/25 11:38:21;;;;;;;;;;;;;;;;;;6282902;28;20342;-84
2023/09/25 11:41:21;;;;;;;;;;;;;;;;;;6300732;28;19955;-83
2023/09/25 11:44:22;;;;;;;;;;;;;;;;;;6301131;28;20412;-84
2023/09/25 11:47:22;;;;;;;;;;;;;;;;;;6301194;28;19908;-88
2023/09/25 11:50:22;;;;;;;;;;;;;;;;;;6300733;28;19908;-88
2023/09/25 11:53:22;;;;;;;;;;;;;;;;;;6300786;28;19908;-87
2023/09/25 11:56:22;;;;;;;;;;;;;;;;;;6282530;28;19909;-88
2023/09/25 11:59:23;;;;;;;;;;;;;;;;;;6301650;28;20361;-88
2023/09/25 12:02:25;;;;;;;;;;;;;;;;;;6300912;28;19966;-88
2023/09/25 12:05:25;;;;;;;;;;;;;;;;;;6301662;28;19962;-88
2023/09/25 12:08:25;;;;;;;;;;;;;;;;;;6283263;28;20415;-88
2023/09/25 12:11:26;;;;;;;;;;;;;;;;;;6282381;28;20378;-88
2023/09/25 12:14:26;;;;;;;;;;;;;;;;;;6300155;28;19965;-88
2023/09/25 12:17:26;;;;;;;;;;;;;;;;;;6281935;28;19912;-88
2023/09/25 12:20:27;;;;;;;;;;;;;;;;;;6300454;28;19904;-87
2023/09/25 12:23:27;;;;;;;;;;;;;;;;;;6282070;28;20263;-88
2023/09/25 12:26:28;;;;;;;;;;;;;;;;;;6300032;28;20326;-88
2023/09/25 12:29:28;;;;;;;;;;;;;;;;;;6281192;28;19904;-88
2023/09/25 12:32:28;;;;;;;;;;;;;;;;;;6282138;28;20282;-89
2023/09/25 12:35:28;;;;;;;;;;;;;;;;;;6300311;28;20372;-88
2023/09/25 12:38:29;;;;;;;;;;;;;;;;;;6300057;28;20366;-87
2023/09/25 12:41:31;;;;;;;;;;;;;;;;;;6281662;28;19911;-87
2023/09/25 12:44:31;;;;;;;;;;;;;;;;;;6299396;28;19905;-88
2023/09/25 12:47:31;;;;;;;;;;;;;;;;;;6281597;28;19923;-84
2023/09/25 12:50:31;;;;;;;;;;;;;;;;;;6299280;28;19908;-85
2023/09/25 12:53:31;;;;;;;;;;;;;;;;;;6299143;28;19915;-84
2023/09/25 12:56:33;;;;;;;;;;;;;;;;;;6299854;28;19918;-84
2023/09/25 12:59:33;;;;;;;;;;;;;;;;;;6299757;28;19991;-84
2023/09/25 13:02:34;;;;;;;;;;;;;;;;;;6299611;28;19904;-83
2023/09/25 13:05:34;;;;;;;;;;;;;;;;;;6299072;28;20380;-84
2023/09/25 13:08:37;;;;;;;;;;;;;;;;;;6299008;28;19904;-85
2023/09/25 13:11:37;;;;;;;;;;;;;;;;;;6298959;28;19916;-85
2023/09/25 13:14:37;;;;;;;;;;;;;;;;;;6281130;28;19908;-83
2023/09/25 13:17:37;;;;;;;;;;;;;;;;;;6280998;28;19905;-84
2023/09/25 13:20:37;;;;;;;;;;;;;;;;;;6299197;28;20415;-83
2023/09/25 13:23:38;;;;;;;;;;;;;;;;;;6298667;28;19904;-83
2023/09/25 13:26:38;;;;;;;;;;;;;;;;;;6280828;28;19904;-84
2023/09/25 13:29:39;;;;;;;;;;;;;;;;;;6280588;28;20433;-83
2023/09/25 13:32:39;;;;;;;;;;;;;;;;;;6298345;28;19911;-84
2023/09/25 13:35:39;;;;;;;;;;;;;;;;;;6280174;28;19908;-83
2023/09/25 13:38:39;;;;;;;;;;;;;;;;;;6280620;28;19927;-84
2023/09/25 13:41:40;;;;;;;;;;;;;;;;;;6279843;28;19974;-83
2023/09/25 13:44:40;;;;;;;;;;;;;;;;;;6298190;28;20325;-83
2023/09/25 13:47:40;;;;;;;;;;;;;;;;;;6280108;28;19908;-84
2023/09/25 13:50:40;;;;;;;;;;;;;;;;;;6280137;28;19948;-84
2023/09/25 13:53:41;;;;;;;;;;;;;;;;;;6279863;28;19908;-83
2023/09/25 13:56:41;;;;;;;;;;;;;;;;;;6298006;28;19908;-82
2023/09/25 13:59:43;;;;;;;;;;;;;;;;;;6297928;28;19905;-83
2023/09/25 14:02:44;;;;;;;;;;;;;;;;;;6280689;28;19909;-83
2023/09/25 14:05:44;;;;;;;;;;;;;;;;;;6280992;28;19904;-86
2023/09/25 14:08:44;;;;;;;;;;;;;;;;;;6279957;28;19923;-83
2023/09/25 14:11:45;;;;;;;;;;;;;;;;;;6279780;28;19908;-83
2023/09/25 14:14:51;;;;;;;;;;;;;;;;;;6279733;28;20358;-83
2023/09/25 14:17:51;;;;;;;;;;;;;;;;;;6298259;28;19911;-83
2023/09/25 14:20:51;;;;;;;;;;;;;;;;;;6297842;28;19944;-83
2023/09/25 14:23:52;;;;;;;;;;;;;;;;;;6297871;28;20021;-84
2023/09/25 14:26:56;;;;;;;;;;;;;;;;;;6279367;28;19958;-83
2023/09/25 14:29:56;;;;;;;;;;;;;;;;;;6297904;28;19904;-84
2023/09/25 14:32:56;;;;;;;;;;;;;;;;;;6297833;28;19905;-84
2023/09/25 14:35:56;;;;;;;;;;;;;;;;;;6279444;28;19909;-83
2023/09/25 14:38:57;;;;;;;;;;;;;;;;;;6279124;28;19911;-84
2023/09/25 14:41:57;;;;;;;;;;;;;;;;;;6297544;28;19947;-85
2023/09/25 14:44:57;;;;;;;;;;;;;;;;;;6298015;28;20286;-84
2023/09/25 14:47:58;;;;;;;;;;;;;;;;;;6280167;28;19955;-84
2023/09/25 14:50:58;;;;;;;;;;;;;;;;;;6279425;28;19905;-84
2023/09/25 14:53:58;;;;;;;;;;;;;;;;;;6300131;28;19928;-84
2023/09/25 14:56:58;;;;;;;;;;;;;;;;;;6302426;28;20347;-84
2023/09/25 14:59:58;;;;;;;;;;;;;;;;;;6302508;28;19909;-84
2023/09/25 15:02:59;;;;;;;;;;;;;;;;;;6302041;28;20286;-85
2023/09/25 15:05:59;;;;;;;;;;;;;;;;;;6302192;28;19967;-85
2023/09/25 15:08:59;;;;;;;;;;;;;;;;;;6301828;28;19915;-84
2023/09/25 15:11:59;;;;;;;;;;;;;;;;;;6306393;28;19905;-83
2023/09/25 15:14:59;;;;;;;;;;;;;;;;;;6306766;28;19912;-83
2023/09/25 15:18:00;;;;;;;;;;;;;;;;;;6286138;28;19927;-83
2023/09/25 15:21:00;;;;;;;;;;;;;;;;;;6283779;28;20387;-83
2023/09/25 15:24:01;;;;;;;;;;;;;;;;;;6301479;28;19904;-83
2023/09/25 15:27:02;;;;;;;;;;;;;;;;;;6301456;28;19908;-83
2023/09/25 15:30:02;;;;;;;;;;;;;;;;;;6283503;28;19912;-83
2023/09/25 15:33:02;;;;;;;;;;;;;;;;;;6301430;28;19908;-83
2023/09/25 15:36:04;;;;;;;;;;;;;;;;;;6283327;28;19912;-83
2023/09/25 15:39:04;;;;;;;;;;;;;;;;;;6301887;28;19947;-84
2023/09/25 15:42:04;;;;;;;;;;;;;;;;;;6301478;28;19995;-83
2023/09/25 15:45:04;;;;;;;;;;;;;;;;;;6301235;28;19904;-83
2023/09/25 15:48:04;;;;;;;;;;;;;;;;;;6283186;28;19995;-84
2023/09/25 15:51:05;;;;;;;;;;;;;;;;;;6282816;28;19912;-83
2023/09/25 15:54:05;;;;;;;;;;;;;;;;;;6300809;28;19954;-85
2023/09/25 15:57:05;;;;;;;;;;;;;;;;;;6300468;28;19908;-83
2023/09/25 16:00:06;;;;;;;;;;;;;;;;;;6300765;28;19904;-84
2023/09/25 16:03:06;;;;;;;;;;;;;;;;;;6300721;28;19912;-83
2023/09/25 16:06:06;;;;;;;;;;;;;;;;;;6300025;28;19905;-83
2023/09/25 16:09:07;;;;;;;;;;;;;;;;;;6282435;28;19916;-84
2023/09/25 16:12:07;;;;;;;;;;;;;;;;;;6282505;28;19904;-84
2023/09/25 16:15:07;;;;;;;;;;;;;;;;;;6300174;28;20251;-83
2023/09/25 16:18:08;;;;;;;;;;;;;;;;;;6300675;28;19911;-88
2023/09/25 16:21:08;;;;;;;;;;;;;;;;;;6282941;28;19919;-90
2023/09/25 16:24:08;;;;;;;;;;;;;;;;;;6299728;28;20273;-88
2023/09/25 16:27:08;;;;;;;;;;;;;;;;;;6300304;28;19987;-84
2023/09/25 16:30:08;;;;;;;;;;;;;;;;;;6299581;28;20279;-83
2023/09/25 16:33:08;;;;;;;;;;;;;;;;;;6299843;28;19927;-84
2023/09/25 16:36:09;;;;;;;;;;;;;;;;;;6299833;28;19998;-84
2023/09/25 16:39:09;;;;;;;;;;;;;;;;;;6281681;28;19948;-84
2023/09/25 16:42:12;;;;;;;;;;;;;;;;;;6299549;28;19905;-83
2023/09/25 16:45:12;;;;;;;;;;;;;;;;;;6299227;28;19958;-83
2023/09/25 16:48:13;;;;;;;;;;;;;;;;;;6299800;28;19912;-83
2023/09/25 16:51:13;;;;;;;;;;;;;;;;;;6281371;28;19904;-84
2023/09/25 16:54:13;;;;;;;;;;;;;;;;;;6298819;28;20284;-84
2023/09/25 16:57:13;;;;;;;;;;;;;;;;;;6299451;28;19908;-84
2023/09/25 17:00:14;;;;;;;;;;;;;;;;;;6299400;28;19912;-83
2023/09/25 17:03:15;;;;;;;;;;;;;;;;;;6298536;28;20362;-83
2023/09/25 17:06:15;;;;;;;;;;;;;;;;;;6281000;28;19904;-84
2023/09/25 17:09:15;;;;;;;;;;;;;;;;;;6280736;28;20282;-84
2023/09/25 17:12:15;;;;;;;;;;;;;;;;;;6280594;28;19904;-84
2023/09/25 17:15:17;;;;;;;;;;;;;;;;;;6280987;28;19928;-84
2023/09/25 17:18:17;;;;;;;;;;;;;;;;;;6280540;28;19909;-84
2023/09/25 17:21:17;;;;;;;;;;;;;;;;;;6280486;28;20278;-83
2023/09/25 17:24:18;;;;;;;;;;;;;;;;;;6280413;28;19939;-84
2023/09/25 17:27:18;;;;;;;;;;;;;;;;;;6280825;28;20370;-87
2023/09/25 17:30:21;;;;;;;;;;;;;;;;;;6281078;28;19908;-88
2023/09/25 17:33:22;;;;;;;;;;;;;;;;;;6281280;28;20135;-88
2023/09/25 17:36:22;;;;;;;;;;;;;;;;;;6298420;28;19915;-84
2023/09/25 17:39:22;;;;;;;;;;;;;;;;;;6298571;28;19974;-84
2023/09/25 17:42:22;;;;;;;;;;;;;;;;;;6297540;28;19908;-84
2023/09/25 17:45:22;;;;;;;;;;;;;;;;;;6298046;28;19908;-84
2023/09/25 17:48:22;;;;;;;;;;;;;;;;;;6297919;28;19915;-84
2023/09/25 17:51:22;;;;;;;;;;;;;;;;;;6280021;28;19962;-84
2023/09/25 17:54:23;;;;;;;;;;;;;;;;;;6280142;28;19908;-84
2023/09/25 17:57:24;;;;;;;;;;;;;;;;;;6297794;28;19915;-82
2023/09/25 18:00:24;;;;;;;;;;;;;;;;;;6279644;28;19908;-84
2023/09/25 18:03:24;;;;;;;;;;;;;;;;;;6298771;28;19927;-83
2023/09/25 18:06:24;;;;;;;;;;;;;;;;;;6300910;28;19971;-83
2023/09/25 18:09:24;;;;;;;;;;;;;;;;;;6282335;28;19912;-84
2023/09/25 18:12:24;;;;;;;;;;;;;;;;;;6301550;28;20082;-84
2023/09/25 18:15:24;;;;;;;;;;;;;;;;;;6313843;28;19935;-84
2023/09/25 18:18:25;;;;;;;;;;;;;;;;;;6292378;28;19904;-84
2023/09/25 18:21:25;;;;;;;;;;;;;;;;;;6310657;28;19905;-83
2023/09/25 18:24:25;;;;;;;;;;;;;;;;;;6285339;28;19927;-83
2023/09/25 18:27:27;;;;;;;;;;;;;;;;;;6303447;28;19983;-83
2023/09/25 18:30:28;;;;;;;;;;;;;;;;;;6289008;28;19911;-84
2023/09/25 18:33:28;;;;;;;;;;;;;;;;;;6307025;28;19904;-84
2023/09/25 18:36:28;;;;;;;;;;;;;;;;;;6289163;28;20277;-88
2023/09/25 18:39:28;;;;;;;;;;;;;;;;;;6287905;28;19904;-89
2023/09/25 18:42:29;;;;;;;;;;;;;;;;;;6306661;28;19991;-89
2023/09/25 18:45:29;;;;;;;;;;;;;;;;;;6307096;28;20293;-88
2023/09/25 18:48:29;;;;;;;;;;;;;;;;;;6306774;28;19911;-88
2023/09/25 18:51:29;;;;;;;;;;;;;;;;;;6306743;28;20002;-87
2023/09/25 18:54:29;;;;;;;;;;;;;;;;;;6306665;28;19904;-87
2023/09/25 18:57:29;;;;;;;;;;;;;;;;;;6307095;28;19908;-88
2023/09/25 19:00:29;;;;;;;;;;;;;;;;;;6307542;28;19911;-88
2023/09/25 19:03:30;;;;;;;;;;;;;;;;;;6289444;28;19905;-88
2023/09/25 19:06:30;;;;;;;;;;;;;;;;;;6308432;28;19904;-89
2023/09/25 19:09:32;;;;;;;;;;;;;;;;;;6309085;28;19986;-89
2023/09/25 19:12:32;;;;;;;;;;;;;;;;;;6309891;28;19962;-88
2023/09/25 19:15:33;;;;;;;;;;;;;;;;;;6309972;28;19916;-88
2023/09/25 19:18:36;;;;;;;;;;;;;;;;;;6310412;28;20251;-88
2023/09/25 19:21:36;;;;;;;;;;;;;;;;;;6309337;28;19911;-88
2023/09/25 19:24:36;;;;;;;;;;;;;;;;;;6310415;28;19916;-88
2023/09/25 19:27:37;;;;;;;;;;;;;;;;;;6308072;28;19905;-88
2023/09/25 19:30:38;;;;;;;;;;;;;;;;;;6309317;28;19904;-88
2023/09/25 19:33:38;;;;;;;;;;;;;;;;;;6291157;28;19927;-88
2023/09/25 19:36:40;;;;;;;;;;;;;;;;;;6292801;28;19908;-88
2023/09/25 19:39:40;;;;;;;;;;;;;;;;;;6308440;28;19904;-88
2023/09/25 19:42:41;;;;;;;;;;;;;;;;;;6309912;28;20381;-88
2023/09/25 19:45:41;;;;;;;;;;;;;;;;;;6291605;28;19953;-88
2023/09/25 19:48:42;;;;;;;;;;;;;;;;;;6309906;28;19987;-83
2023/09/25 19:51:42;;;;;;;;;;;;;;;;;;6291747;28;19905;-83
2023/09/25 19:54:42;;;;;;;;;;;;;;;;;;6291889;28;19979;-84
2023/09/25 19:57:42;;;;;;;;;;;;;;;;;;6311815;28;19931;-88
2023/09/25 20:00:42;;;;;;;;;;;;;;;;;;6314610;28;19908;-89
2023/09/25 20:03:42;;;;;;;;;;;;;;;;;;6311487;28;19931;-88
2023/09/25 20:06:42;;;;;;;;;;;;;;;;;;6312733;28;19919;-88
2023/09/25 20:09:43;;;;;;;;;;;;;;;;;;6313174;28;19916;-88
2023/09/25 20:12:43;;;;;;;;;;;;;;;;;;6315070;28;19931;-89
2023/09/25 20:15:43;;;;;;;;;;;;;;;;;;6317494;28;19918;-88
2023/09/25 20:18:44;;;;;;;;;;;;;;;;;;6316830;28;19908;-88
2023/09/25 20:21:44;;;;;;;;;;;;;;;;;;6316481;28;20306;-88
2023/09/25 20:24:44;;;;;;;;;;;;;;;;;;6297447;28;19904;-88
2023/09/25 20:27:47;;;;;;;;;;;;;;;;;;6298269;28;19952;-88
2023/09/25 20:30:47;;;;;;;;;;;;;;;;;;6316462;28;19954;-89